createdAt,value
2022-10-09T00:02:16.614Z,6.46
2022-10-09T00:04:43.514Z,6.45
2022-10-09T00:07:10.352Z,6.45
2022-10-09T00:09:37.467Z,6.42
2022-10-09T00:12:04.380Z,6.42
2022-10-09T00:14:31.261Z,6.43
2022-10-09T00:16:59.482Z,6.47
2022-10-09T00:19:26.769Z,6.43
2022-10-09T00:21:53.578Z,6.43
2022-10-09T00:24:20.506Z,6.36
2022-10-09T00:26:47.685Z,6.38
2022-10-09T00:29:14.502Z,6.35
2022-10-09T00:31:41.271Z,6.34
2022-10-09T00:34:09.595Z,6.32
2022-10-09T00:36:36.372Z,6.35
2022-10-09T00:39:03.262Z,6.36
2022-10-09T00:41:31.469Z,6.28
2022-10-09T00:44:01.183Z,6.26
2022-10-09T00:46:31.352Z,6.25
2022-10-09T00:49:05.742Z,6.25
2022-10-09T00:51:34.835Z,6.23
2022-10-09T00:54:04.676Z,6.21
2022-10-09T00:56:31.568Z,6.21
2022-10-09T00:58:59.798Z,6.20
2022-10-09T01:01:27.354Z,6.22
2022-10-09T01:03:55.033Z,6.21
2022-10-09T01:06:33.341Z,6.19
2022-10-09T01:09:07.393Z,6.15
2022-10-09T01:11:41.498Z,6.18
2022-10-09T01:14:17.355Z,6.17
2022-10-09T01:16:50.463Z,6.14
2022-10-09T01:19:35.677Z,6.12
2022-10-09T01:22:13.533Z,6.13
2022-10-09T01:24:48.110Z,6.11
2022-10-09T01:27:19.973Z,6.10
2022-10-09T01:29:51.736Z,6.08
2022-10-09T01:32:23.308Z,6.08
2022-10-09T01:34:51.530Z,6.10
2022-10-09T01:37:20.581Z,6.08
2022-10-09T01:39:48.918Z,6.08
2022-10-09T01:42:21.099Z,6.10
2022-10-09T01:44:47.954Z,6.10
2022-10-09T01:47:16.631Z,6.08
2022-10-09T01:49:51.823Z,6.08
2022-10-09T01:52:37.112Z,6.03
2022-10-09T01:55:16.510Z,6.04
2022-10-09T01:57:50.940Z,6.03
2022-10-09T02:00:18.376Z,6.05
2022-10-09T02:02:47.228Z,6.12
2022-10-09T02:05:19.414Z,6.15
2022-10-09T02:07:46.215Z,6.17
2022-10-09T02:10:15.036Z,6.18
2022-10-09T02:12:46.979Z,6.19
2022-10-09T02:15:14.433Z,6.19
2022-10-09T02:17:45.952Z,6.17
2022-10-09T02:20:19.161Z,6.16
2022-10-09T02:22:46.937Z,6.15
2022-10-09T02:25:14.957Z,6.09
2022-10-09T02:27:41.906Z,6.08
2022-10-09T02:30:11.622Z,6.08
2022-10-09T02:32:39.226Z,6.09
2022-10-09T02:35:06.719Z,6.07
2022-10-09T02:37:33.599Z,6.06
2022-10-09T02:40:00.488Z,6.08
2022-10-09T02:42:27.305Z,6.04
2022-10-09T02:44:54.138Z,6.05
2022-10-09T02:47:22.383Z,6.06
2022-10-09T02:49:49.325Z,6.09
2022-10-09T02:52:16.101Z,6.07
2022-10-09T02:54:43.031Z,6.08
2022-10-09T02:57:09.823Z,6.13
2022-10-09T02:59:36.601Z,6.19
2022-10-09T03:02:03.518Z,6.20
2022-10-09T03:04:31.781Z,6.19
2022-10-09T03:06:59.355Z,6.17
2022-10-09T03:09:29.223Z,6.13
2022-10-09T03:11:59.755Z,6.17
2022-10-09T03:14:26.651Z,6.15
2022-10-09T03:16:53.554Z,6.16
2022-10-09T03:19:20.350Z,6.16
2022-10-09T03:21:48.487Z,6.14
2022-10-09T03:24:15.328Z,6.17
2022-10-09T03:26:42.091Z,6.26
2022-10-09T03:29:08.943Z,6.30
2022-10-09T03:31:52.785Z,6.29
2022-10-09T03:34:20.620Z,6.22
2022-10-09T03:36:48.790Z,6.25
2022-10-09T03:39:15.771Z,6.19
2022-10-09T03:41:42.659Z,6.15
2022-10-09T03:44:09.382Z,6.03
2022-10-09T03:46:36.300Z,6.03
2022-10-09T03:49:03.203Z,5.93
2022-10-09T03:51:30.019Z,5.93
2022-10-09T03:53:58.448Z,5.88
2022-10-09T03:56:25.217Z,5.82
2022-10-09T03:58:52.082Z,5.72
2022-10-09T04:01:19.037Z,5.71
2022-10-09T04:03:46.035Z,5.73
2022-10-09T04:06:13.033Z,5.62
2022-10-09T04:08:39.811Z,5.66
2022-10-09T04:11:08.031Z,5.77
2022-10-09T04:13:34.894Z,5.86
2022-10-09T04:16:01.935Z,5.85
2022-10-09T04:18:28.821Z,5.84
2022-10-09T04:20:57.146Z,5.82
2022-10-09T04:23:25.673Z,5.89
2022-10-09T04:25:54.110Z,5.93
2022-10-09T04:28:23.676Z,5.86
2022-10-09T04:30:50.645Z,5.82
2022-10-09T04:33:17.481Z,5.75
2022-10-09T04:35:44.875Z,5.78
2022-10-09T04:38:12.216Z,5.79
2022-10-09T04:40:38.984Z,5.82
2022-10-09T04:43:06.079Z,5.86
2022-10-09T04:45:38.768Z,5.77
2022-10-09T04:48:05.679Z,5.77
2022-10-09T04:50:32.467Z,5.73
2022-10-09T04:52:59.261Z,5.67
2022-10-09T04:55:26.052Z,5.64
2022-10-09T04:57:52.839Z,5.61
2022-10-09T05:00:19.982Z,5.62
2022-10-09T05:02:48.453Z,5.67
2022-10-09T05:05:15.672Z,5.72
2022-10-09T05:07:42.457Z,5.78
2022-10-09T05:10:09.538Z,5.79
2022-10-09T05:12:36.233Z,5.84
2022-10-09T05:15:03.219Z,5.83
2022-10-09T05:17:30.075Z,5.86
2022-10-09T05:19:58.327Z,5.89
2022-10-09T05:22:25.062Z,5.85
2022-10-09T05:24:51.904Z,5.92
2022-10-09T05:27:18.700Z,6.04
2022-10-09T05:29:45.519Z,6.04
2022-10-09T05:32:12.353Z,6.17
2022-10-09T05:34:39.150Z,6.18
2022-10-09T05:37:07.360Z,6.24
2022-10-09T05:39:36.025Z,6.19
2022-10-09T05:42:03.050Z,6.16
2022-10-09T05:44:30.012Z,6.17
2022-10-09T05:46:56.833Z,6.28
2022-10-09T05:49:23.754Z,6.40
2022-10-09T05:51:50.710Z,6.34
2022-10-09T05:54:20.077Z,6.31
2022-10-09T05:56:47.032Z,6.24
2022-10-09T05:59:15.869Z,6.12
2022-10-09T06:01:44.551Z,6.22
2022-10-09T06:04:14.690Z,6.08
2022-10-09T06:06:41.983Z,6.08
2022-10-09T06:09:10.483Z,6.14
2022-10-09T06:11:40.126Z,6.22
2022-10-09T06:14:08.112Z,6.29
2022-10-09T06:16:36.836Z,6.27
2022-10-09T06:19:04.899Z,6.23
2022-10-09T06:21:32.482Z,6.25
2022-10-09T06:24:01.737Z,6.32
2022-10-09T06:26:29.658Z,6.38
2022-10-09T06:28:59.692Z,6.52
2022-10-09T06:31:28.405Z,6.62
2022-10-09T06:33:55.579Z,6.74
2022-10-09T06:36:23.810Z,6.81
2022-10-09T06:38:53.254Z,6.95
2022-10-09T06:41:22.042Z,6.96
2022-10-09T06:43:50.722Z,6.96
2022-10-09T06:46:20.751Z,7.01
2022-10-09T06:48:47.878Z,7.13
2022-10-09T06:51:17.472Z,7.23
2022-10-09T06:53:46.925Z,7.32
2022-10-09T06:56:14.459Z,7.43
2022-10-09T06:58:41.665Z,7.48
2022-10-09T07:01:10.668Z,7.59
2022-10-09T07:03:41.072Z,7.62
2022-10-09T07:06:10.039Z,7.71
2022-10-09T07:08:37.186Z,7.77
2022-10-09T07:11:11.870Z,7.76
2022-10-09T07:13:39.141Z,7.81
2022-10-09T07:16:07.145Z,8.01
2022-10-09T07:18:34.705Z,8.15
2022-10-09T07:21:05.364Z,8.21
2022-10-09T07:23:33.064Z,8.30
2022-10-09T07:26:01.769Z,8.44
2022-10-09T07:28:30.073Z,8.54
2022-10-09T07:30:57.333Z,8.65
2022-10-09T07:33:24.850Z,8.73
2022-10-09T07:35:54.929Z,8.90
2022-10-09T07:38:24.583Z,9.06
2022-10-09T07:40:51.995Z,9.21
2022-10-09T07:43:18.885Z,9.38
2022-10-09T07:45:46.088Z,9.50
2022-10-09T07:48:13.334Z,9.65
2022-10-09T07:50:40.269Z,9.81
2022-10-09T07:53:08.890Z,9.83
2022-10-09T07:55:37.184Z,9.98
2022-10-09T07:58:04.045Z,10.13
2022-10-09T08:00:30.844Z,10.18
2022-10-09T08:02:57.658Z,10.34
2022-10-09T08:05:24.516Z,10.41
2022-10-09T08:07:51.662Z,10.50
2022-10-09T08:10:18.494Z,10.62
2022-10-09T08:12:46.937Z,10.63
2022-10-09T08:15:14.135Z,10.70
2022-10-09T08:17:40.963Z,10.78
2022-10-09T08:20:11.678Z,10.81
2022-10-09T08:22:38.485Z,10.84
2022-10-09T08:25:06.398Z,10.94
2022-10-09T08:27:33.449Z,11.01
2022-10-09T08:30:01.956Z,11.06
2022-10-09T08:32:28.981Z,11.16
2022-10-09T08:34:55.967Z,11.21
2022-10-09T08:37:22.931Z,11.23
2022-10-09T08:39:49.813Z,11.27
2022-10-09T08:42:29.030Z,11.32
2022-10-09T08:45:05.008Z,11.33
2022-10-09T08:47:38.773Z,11.44
2022-10-09T08:50:11.695Z,11.53
2022-10-09T08:52:49.803Z,11.57
2022-10-09T08:55:22.931Z,11.60
2022-10-09T08:57:52.270Z,11.65
2022-10-09T09:00:22.663Z,11.73
2022-10-09T09:03:29.859Z,11.76
2022-10-09T09:06:05.441Z,11.84
2022-10-09T09:08:39.281Z,11.95
2022-10-09T09:11:21.453Z,12.12
2022-10-09T09:13:59.912Z,12.19
2022-10-09T09:16:39.682Z,12.26
2022-10-09T09:19:22.030Z,12.41
2022-10-09T09:21:51.712Z,12.66
2022-10-09T09:24:20.682Z,13.05
2022-10-09T09:26:53.615Z,13.36
2022-10-09T09:29:23.734Z,14.89
2022-10-09T09:31:57.351Z,16.05
2022-10-09T09:34:28.519Z,16.77
2022-10-09T09:36:59.057Z,17.89
2022-10-09T09:42:18.215Z,19.27
2022-10-09T09:44:57.776Z,20.16
2022-10-09T09:47:32.917Z,20.82
2022-10-09T09:50:01.738Z,21.75
2022-10-09T09:52:34.265Z,22.27
2022-10-09T09:55:01.202Z,22.69
2022-10-09T09:57:33.118Z,23.21
2022-10-09T10:00:20.184Z,22.26
2022-10-09T10:02:49.093Z,21.90
2022-10-09T10:05:20.869Z,21.56
2022-10-09T10:07:50.183Z,20.99
2022-10-09T10:10:24.195Z,21.97
2022-10-09T10:12:57.693Z,22.44
2022-10-09T10:15:26.736Z,22.90
2022-10-09T10:18:03.869Z,22.61
2022-10-09T10:20:32.599Z,21.68
2022-10-09T10:23:01.235Z,21.60
2022-10-09T10:25:33.640Z,21.81
2022-10-09T10:28:04.428Z,22.50
2022-10-09T10:30:32.995Z,22.71
2022-10-09T10:33:07.960Z,23.24
2022-10-09T10:35:38.578Z,22.89
2022-10-09T10:38:13.307Z,23.58
2022-10-09T10:40:45.217Z,22.63
2022-10-09T10:43:24.582Z,22.35
2022-10-09T10:46:02.982Z,22.67
2022-10-09T10:48:33.873Z,23.40
2022-10-09T10:51:16.482Z,22.74
2022-10-09T10:53:55.715Z,23.18
2022-10-09T10:56:29.965Z,22.13
2022-10-09T10:59:14.045Z,22.77
2022-10-09T11:01:48.748Z,22.50
2022-10-09T11:04:42.467Z,22.72
2022-10-09T11:07:20.090Z,23.43
2022-10-09T11:09:56.699Z,21.97
2022-10-09T11:12:57.755Z,21.14
2022-10-09T11:15:34.317Z,19.80
2022-10-09T11:18:14.641Z,18.28
2022-10-09T11:21:21.785Z,17.48
2022-10-09T11:24:00.365Z,16.98
2022-10-09T11:26:36.417Z,16.53
2022-10-09T11:29:08.921Z,16.31
2022-10-09T11:31:41.910Z,16.25
2022-10-09T11:34:16.454Z,16.02
2022-10-09T11:36:45.613Z,15.76
2022-10-09T11:39:16.053Z,15.53
2022-10-09T11:41:46.725Z,15.57
2022-10-09T11:44:27.709Z,15.42
2022-10-09T11:47:01.979Z,15.16
2022-10-09T11:49:35.845Z,15.09
2022-10-09T11:52:11.497Z,14.99
2022-10-09T11:54:38.448Z,14.98
2022-10-09T11:57:06.576Z,14.95
2022-10-09T11:59:36.490Z,15.05
2022-10-09T12:02:22.076Z,15.04
2022-10-09T12:04:56.260Z,15.04
2022-10-09T12:07:31.009Z,15.04
2022-10-09T12:10:02.552Z,15.10
2022-10-09T12:12:29.757Z,15.13
2022-10-09T12:14:56.740Z,15.01
2022-10-09T12:17:34.440Z,15.17
2022-10-09T12:20:07.925Z,15.14
2022-10-09T12:22:40.570Z,15.24
2022-10-09T12:25:15.815Z,15.16
2022-10-09T12:27:42.830Z,15.15
2022-10-09T12:30:20.978Z,15.22
2022-10-09T12:32:53.513Z,15.17
2022-10-09T12:35:24.715Z,15.17
2022-10-09T12:37:52.993Z,15.25
2022-10-09T12:40:23.670Z,15.23
2022-10-09T12:42:53.679Z,15.27
2022-10-09T12:45:24.160Z,15.28
2022-10-09T12:47:54.323Z,15.40
2022-10-09T12:50:25.419Z,15.30
2022-10-09T12:52:55.509Z,15.39
2022-10-09T12:55:26.517Z,15.37
2022-10-09T12:57:56.496Z,15.32
2022-10-09T13:00:23.502Z,15.21
2022-10-09T13:02:50.546Z,15.23
2022-10-09T13:05:18.120Z,15.27
2022-10-09T13:07:52.648Z,15.27
2022-10-09T13:10:23.854Z,15.34
2022-10-09T13:12:53.311Z,15.39
2022-10-09T13:15:33.466Z,15.41
2022-10-09T13:18:00.717Z,15.38
2022-10-09T13:20:29.391Z,15.36
2022-10-09T13:22:59.056Z,15.49
2022-10-09T13:25:32.561Z,15.57
2022-10-09T13:27:59.660Z,15.45
2022-10-09T13:30:28.463Z,15.35
2022-10-09T13:32:55.711Z,15.25
2022-10-09T13:35:22.710Z,15.27
2022-10-09T13:37:49.755Z,15.29
2022-10-09T13:40:20.814Z,15.29
2022-10-09T13:42:52.847Z,15.27
2022-10-09T13:45:19.933Z,15.21
2022-10-09T13:47:47.058Z,15.24
2022-10-09T13:50:15.279Z,15.23
2022-10-09T13:52:42.254Z,15.25
2022-10-09T13:55:10.158Z,15.16
2022-10-09T13:57:37.018Z,15.13
2022-10-09T14:00:06.991Z,15.15
2022-10-09T14:02:39.329Z,15.17
2022-10-09T14:05:06.856Z,14.98
2022-10-09T14:07:33.702Z,15.00
2022-10-09T14:10:00.469Z,14.94
2022-10-09T14:12:27.248Z,14.88
2022-10-09T14:14:54.139Z,14.73
2022-10-09T14:17:22.427Z,14.74
2022-10-09T14:19:49.291Z,14.73
2022-10-09T14:22:16.352Z,14.68
2022-10-09T14:24:43.488Z,14.60
2022-10-09T14:27:10.407Z,14.52
2022-10-09T14:29:38.705Z,14.47
2022-10-09T14:32:05.949Z,14.40
2022-10-09T14:34:34.133Z,14.34
2022-10-09T14:37:07.357Z,14.26
2022-10-09T14:39:43.742Z,14.11
2022-10-09T14:42:10.752Z,14.31
2022-10-09T14:44:37.688Z,14.37
2022-10-09T14:47:04.948Z,14.40
2022-10-09T14:49:31.967Z,14.42
2022-10-09T14:52:04.813Z,14.42
2022-10-09T14:54:32.072Z,14.44
2022-10-09T14:56:58.957Z,14.46
2022-10-09T14:59:27.826Z,14.46
2022-10-09T15:01:54.626Z,14.39
2022-10-09T15:04:21.404Z,14.33
2022-10-09T15:06:48.147Z,14.36
2022-10-09T15:09:16.796Z,14.33
2022-10-09T15:11:43.833Z,14.26
2022-10-09T15:14:10.959Z,14.24
2022-10-09T15:16:38.091Z,14.06
2022-10-09T15:19:05.906Z,14.13
2022-10-09T15:21:34.342Z,14.14
2022-10-09T15:24:02.979Z,14.05
2022-10-09T15:26:33.055Z,14.10
2022-10-09T15:29:01.589Z,14.09
2022-10-09T15:31:30.430Z,14.02
2022-10-09T15:33:58.112Z,14.09
2022-10-09T15:36:25.258Z,14.06
2022-10-09T15:38:52.033Z,14.04
2022-10-09T15:41:25.133Z,14.02
2022-10-09T15:43:56.121Z,13.96
2022-10-09T15:46:23.744Z,13.89
2022-10-09T15:48:50.779Z,13.80
2022-10-09T15:51:18.407Z,13.75
2022-10-09T15:53:47.366Z,13.69
2022-10-09T15:56:16.571Z,13.66
2022-10-09T15:58:43.781Z,13.57
2022-10-09T16:01:14.387Z,13.50
2022-10-09T16:03:41.713Z,13.44
2022-10-09T16:06:10.450Z,13.37
2022-10-09T16:08:37.461Z,13.27
2022-10-09T16:11:06.083Z,13.17
2022-10-09T16:13:35.326Z,13.10
2022-10-09T16:16:04.930Z,13.01
2022-10-09T16:18:33.513Z,12.87
2022-10-09T16:21:04.796Z,12.73
2022-10-09T16:23:31.660Z,12.62
2022-10-09T16:25:59.866Z,12.52
2022-10-09T16:28:26.988Z,12.40
2022-10-09T16:30:54.294Z,12.24
2022-10-09T16:33:22.022Z,12.11
2022-10-09T16:35:50.463Z,11.94
2022-10-09T16:38:17.609Z,11.81
2022-10-09T16:43:33.114Z,11.60
2022-10-09T16:46:09.214Z,11.42
2022-10-09T16:48:35.969Z,11.37
2022-10-09T16:51:07.867Z,11.24
2022-10-09T16:53:34.821Z,11.18
2022-10-09T16:56:07.638Z,11.03
2022-10-09T16:58:34.514Z,10.98
2022-10-09T17:01:03.936Z,10.90
2022-10-09T17:03:34.353Z,10.92
2022-10-09T17:06:01.732Z,10.75
2022-10-09T17:08:30.600Z,10.72
2022-10-09T17:10:57.402Z,10.71
2022-10-09T17:13:24.326Z,10.80
2022-10-09T17:15:51.408Z,10.69
2022-10-09T17:18:18.217Z,10.66
2022-10-09T17:20:45.025Z,10.64
2022-10-09T17:23:11.810Z,10.75
2022-10-09T17:25:42.044Z,10.72
2022-10-09T17:28:09.295Z,10.71
2022-10-09T17:30:40.110Z,10.59
2022-10-09T17:33:07.493Z,10.53
2022-10-09T17:35:39.505Z,10.60
2022-10-09T17:38:07.261Z,10.56
2022-10-09T17:40:38.119Z,10.49
2022-10-09T17:43:06.439Z,10.38
2022-10-09T17:45:39.249Z,10.15
2022-10-09T17:48:06.769Z,10.04
2022-10-09T17:50:33.906Z,9.92
2022-10-09T17:53:01.144Z,9.88
2022-10-09T17:55:28.267Z,9.90
2022-10-09T17:57:55.859Z,9.91
2022-10-09T18:00:24.479Z,9.93
2022-10-09T18:02:51.306Z,9.94
2022-10-09T18:05:18.289Z,9.85
2022-10-09T18:07:45.073Z,9.81
2022-10-09T18:10:15.905Z,9.77
2022-10-09T18:12:43.130Z,9.66
2022-10-09T18:15:11.008Z,9.70
2022-10-09T18:17:39.501Z,9.69
2022-10-09T18:20:07.860Z,9.67
2022-10-09T18:22:35.918Z,9.69
2022-10-09T18:25:02.868Z,9.69
2022-10-09T18:27:30.079Z,9.67
2022-10-09T18:29:56.834Z,9.70
2022-10-09T18:32:23.766Z,9.70
2022-10-09T18:34:52.005Z,9.66
2022-10-09T18:37:20.139Z,9.70
2022-10-09T18:39:47.042Z,9.70
2022-10-09T18:42:13.937Z,9.68
2022-10-09T18:44:42.983Z,9.68
2022-10-09T18:47:14.658Z,9.65
2022-10-09T18:49:45.458Z,9.65
2022-10-09T18:52:15.125Z,9.54
2022-10-09T18:54:43.341Z,9.54
2022-10-09T18:57:10.806Z,9.55
2022-10-09T18:59:38.782Z,9.48
2022-10-09T19:02:06.001Z,9.40
2022-10-09T19:04:32.855Z,9.36
2022-10-09T19:07:00.206Z,9.33
2022-10-09T19:09:28.451Z,9.30
2022-10-09T19:11:55.798Z,9.23
2022-10-09T19:14:23.114Z,9.20
2022-10-09T19:16:49.985Z,9.16
2022-10-09T19:19:16.826Z,9.12
2022-10-09T19:21:44.323Z,9.12
2022-10-09T19:24:11.387Z,9.09
2022-10-09T19:26:40.411Z,9.07
2022-10-09T19:29:08.354Z,8.98
2022-10-09T19:31:36.093Z,9.01
2022-10-09T19:34:04.941Z,9.02
2022-10-09T19:36:34.289Z,9.03
2022-10-09T19:39:01.326Z,8.99
2022-10-09T19:41:28.306Z,8.94
2022-10-09T19:43:56.581Z,8.87
2022-10-09T19:46:23.370Z,8.80
2022-10-09T19:48:50.726Z,8.69
2022-10-09T19:51:19.605Z,8.71
2022-10-09T19:53:46.606Z,8.70
2022-10-09T19:56:15.921Z,8.63
2022-10-09T19:58:44.782Z,8.58
2022-10-09T20:01:14.980Z,8.57
2022-10-09T20:03:42.316Z,8.57
2022-10-09T20:06:10.739Z,8.57
2022-10-09T20:08:38.728Z,8.60
2022-10-09T20:11:07.546Z,8.58
2022-10-09T20:13:36.506Z,8.58
2022-10-09T20:16:05.606Z,8.59
2022-10-09T20:18:34.899Z,8.59
2022-10-09T20:21:01.801Z,8.55
2022-10-09T20:23:28.830Z,8.57
2022-10-09T20:26:00.519Z,8.57
2022-10-09T20:28:27.550Z,8.54
2022-10-09T20:30:58.206Z,8.47
2022-10-09T20:33:25.463Z,8.47
2022-10-09T20:35:54.043Z,8.53
2022-10-09T20:38:25.700Z,8.57
2022-10-09T20:40:53.289Z,8.60
2022-10-09T20:43:20.198Z,8.58
2022-10-09T20:45:47.084Z,8.58
2022-10-09T20:48:14.003Z,8.60
2022-10-09T20:50:42.043Z,8.56
2022-10-09T20:53:10.758Z,8.49
2022-10-09T20:55:37.892Z,8.46
2022-10-09T20:58:05.178Z,8.44
2022-10-09T21:00:31.974Z,8.44
2022-10-09T21:02:58.777Z,8.40
2022-10-09T21:05:25.630Z,8.43
2022-10-09T21:07:52.465Z,8.38
2022-10-09T21:10:20.884Z,8.31
2022-10-09T21:12:47.794Z,8.24
2022-10-09T21:15:14.798Z,8.24
2022-10-09T21:17:41.715Z,8.26
2022-10-09T21:20:09.296Z,8.19
2022-10-09T21:22:36.403Z,8.11
2022-10-09T21:25:03.483Z,8.13
2022-10-09T21:27:31.661Z,8.13
2022-10-09T21:29:58.520Z,8.18
2022-10-09T21:32:25.452Z,8.21
2022-10-09T21:34:52.263Z,8.24
2022-10-09T21:37:21.901Z,8.25
2022-10-09T21:39:49.322Z,8.32
2022-10-09T21:42:16.135Z,8.27
2022-10-09T21:44:44.422Z,8.31
2022-10-09T21:47:17.993Z,8.37
2022-10-09T21:49:45.433Z,8.42
2022-10-09T21:52:12.266Z,8.43
2022-10-09T21:54:39.122Z,8.55
2022-10-09T21:57:05.918Z,8.64
2022-10-09T21:59:32.760Z,8.73
2022-10-09T22:02:00.957Z,8.79
2022-10-09T22:04:27.782Z,8.81
2022-10-09T22:06:54.799Z,8.87
2022-10-09T22:09:21.787Z,8.94
2022-10-09T22:11:48.541Z,9.04
2022-10-09T22:14:15.882Z,9.12
2022-10-09T22:16:42.844Z,9.14
2022-10-09T22:19:11.084Z,9.16
2022-10-09T22:21:37.894Z,9.24
2022-10-09T22:24:04.952Z,9.28
2022-10-09T22:26:32.033Z,9.25
2022-10-09T22:28:58.987Z,9.28
2022-10-09T22:31:27.739Z,9.28
2022-10-09T22:33:56.450Z,9.28
2022-10-09T22:36:26.648Z,9.26
2022-10-09T22:38:54.879Z,9.20
2022-10-09T22:41:22.331Z,9.18
2022-10-09T22:43:51.746Z,9.19
2022-10-09T22:46:21.407Z,9.23
2022-10-09T22:48:48.000Z,9.21
2022-10-09T22:51:17.951Z,9.21
2022-10-09T22:53:46.325Z,9.20
2022-10-09T22:56:15.571Z,9.22
2022-10-09T22:58:42.361Z,9.27
2022-10-09T23:01:13.999Z,9.32
2022-10-09T23:03:41.068Z,9.43
2022-10-09T23:06:09.879Z,9.50
2022-10-09T23:08:38.381Z,9.57
2022-10-09T23:11:07.139Z,9.57
2022-10-09T23:13:34.701Z,9.51
2022-10-09T23:16:02.084Z,9.52
2022-10-09T23:18:29.295Z,9.51
2022-10-09T23:20:56.420Z,9.42
2022-10-09T23:23:23.727Z,9.47
2022-10-09T23:25:50.619Z,9.47
2022-10-09T23:28:18.947Z,9.50
2022-10-09T23:30:45.873Z,9.49
2022-10-09T23:33:12.841Z,9.46
2022-10-09T23:35:41.041Z,9.42
2022-10-09T23:38:08.226Z,9.37
2022-10-09T23:40:35.328Z,9.32
2022-10-09T23:43:02.237Z,9.26
2022-10-09T23:45:30.541Z,9.27
2022-10-09T23:47:57.397Z,9.27
2022-10-09T23:50:24.279Z,9.28
2022-10-09T23:52:51.513Z,9.25
2022-10-09T23:55:18.788Z,9.26
2022-10-09T23:57:45.604Z,9.23
